Time;durP1;ratioP1;P1;durP2;ratioP2;P2;SDS_P1;SDS_P2;PMS_P1;PMS_P2;Temp;Humidity;BMP_temperature;BMP_pressure;BME280_temperature;BME280_humidity;BME280_pressure;Samples;Min_cycle;Max_cycle;Signal;HPM_P1;HPM_P2
2021/08/01 00:01:49;;;;;;;9.40;7.60;;;;;;;19.72;57.48;99332.93;123897;1114;103070;-76
2021/08/01 00:05:24;;;;;;;;;;;;;;;;;;;;;
2021/08/01 00:21:31;;;;;;;10.90;7.57;;;;;;;19.62;57.43;99334.69;126584;1090;103432;-76
2021/08/01 00:33:46;;;;;;;;;;;;;;;;;;;;;
2021/08/01 00:37:41;;;;;;;11.10;7.50;;;;;;;19.47;57.34;99341.22;124257;1109;102929;-77
2021/08/01 00:42:15;;;;;;;9.13;7.10;;;;;;;19.46;57.27;99345.67;123831;1112;113506;-76
2021/08/01 00:46:17;;;;;;;10.60;7.50;;;;;;;19.45;57.17;99340.52;123837;1113;113756;-76
2021/08/01 00:49:53;;;;;;;;;;;;;;;;;;;;;
2021/08/01 00:54:28;;;;;;;11.13;7.30;;;;;;;19.48;57.09;99345.55;123519;1122;113374;-76
2021/08/01 01:02:04;;;;;;;10.13;7.13;;;;;;;19.44;57.14;99352.90;126525;1093;102862;-77
2021/08/01 01:06:13;;;;;;;9.17;7.40;;;;;;;19.46;56.83;99352.77;126104;1093;113418;-76
2021/08/01 01:10:10;;;;;;;;;;;;;;;;;;;;;
2021/08/01 01:18:24;;;;;;;13.10;8.13;;;;;;;19.23;57.16;99360.80;124644;1103;113426;-76
2021/08/01 01:22:24;;;;;;;9.00;7.20;;;;;;;19.16;57.26;99354.31;124579;1105;114235;-77
2021/08/01 01:26:25;;;;;;;10.07;7.23;;;;;;;19.08;57.43;99355.92;124694;1104;103099;-76
2021/08/01 01:34:13;;;;;;;;;;;;;;;;;;;;;
2021/08/01 01:37:40;;;;;;;;;;;;;;;18.84;57.77;99359.56;124732;1106;103052;-77
2021/08/01 01:41:21;;;;;;;;;;;;;;;;;;;;;
2021/08/01 01:45:33;;;;;;;8.27;7.10;;;;;;;18.76;57.80;99345.30;124703;1106;103026;-76
2021/08/01 01:49:42;;;;;;;12.17;7.50;;;;;;;18.71;57.84;99351.80;124769;1106;102937;-76
2021/08/01 01:53:50;;;;;;;9.37;7.20;;;;;;;18.69;57.81;99359.01;124652;1103;113828;-77
2021/08/01 01:58:10;;;;;;;;;;;;;;;;;;;;;
2021/08/01 02:01:39;;;;;;;;;;;;;;;;;;;;;
2021/08/01 02:05:46;;;;;;;12.03;7.40;;;;;;;18.68;58.08;99373.17;125038;1103;113800;-76
2021/08/01 02:13:45;;;;;;;9.77;7.33;;;;;;;18.69;58.06;99361.65;124699;1103;103033;-76
2021/08/01 02:22:14;;;;;;;;;;;;;;;;;;;;;
2021/08/01 02:26:12;;;;;;;10.73;6.97;;;;;;;18.56;58.11;99366.19;124246;1106;113579;-76
2021/08/01 02:30:33;;;;;;;;;;;;;;;;;;;;;
2021/08/01 02:38:47;;;;;;;;;;;;;;;;;;;;;
2021/08/01 02:43:25;;;;;;;9.45;6.95;;;;;;;18.40;58.31;99357.79;123779;1112;112838;-78
2021/08/01 02:47:32;;;;;;;12.00;7.20;;;;;;;18.35;58.24;99359.95;124142;1111;102908;-77
2021/08/01 02:51:57;;;;;;;11.60;6.85;;;;;;;18.31;58.21;99358.48;123929;1111;103092;-77
2021/08/01 03:00:10;;;;;;;8.60;6.50;;;;;;;18.39;58.06;99364.03;123675;1117;103113;-77
2021/08/01 03:12:27;;;;;;;9.47;6.67;;;;;;;18.47;57.55;99358.13;123813;1114;103081;-77
2021/08/01 03:20:30;;;;;;;8.97;6.00;;;;;;;18.51;57.45;99364.88;123813;1116;114429;-77
2021/08/01 03:24:25;;;;;;;;;;;;;;;;;;;;;
2021/08/01 03:28:52;;;;;;;11.30;6.70;;;;;;;18.56;57.18;99360.90;123900;1115;103402;-77
2021/08/01 03:41:07;;;;;;;10.37;6.10;;;;;;;18.66;56.81;99375.07;123737;1115;114299;-77
2021/08/01 03:52:45;;;;;;;9.93;5.67;;;;;;;18.81;56.48;99369.53;125786;1098;113530;-78
2021/08/01 04:01:02;;;;;;;10.87;5.57;;;;;;;18.94;55.75;99364.95;125183;1103;103326;-76
2021/08/01 04:05:11;;;;;;;9.60;5.73;;;;;;;19.02;55.52;99370.45;124616;1105;113465;-78
2021/08/01 04:09:08;;;;;;;9.63;5.30;;;;;;;19.07;55.00;99365.66;124485;1105;113578;-76
2021/08/01 04:13:41;;;;;;;13.90;5.50;;;;;;;19.13;55.35;99364.30;124249;1109;103126;-77
2021/08/01 04:21:52;;;;;;;8.45;5.20;;;;;;;19.43;55.32;99371.53;123652;1119;113861;-78
2021/08/01 04:25:26;;;;;;;;;;;;;;;;;;;;;
2021/08/01 04:33:21;;;;;;;;;;;;;;;;;;;;;
2021/08/01 04:37:18;;;;;;;;;;;;;;;;;;;;;
2021/08/01 04:53:52;;;;;;;6.00;4.50;;;;;;;20.41;51.71;99401.20;126141;1095;103328;-77
2021/08/01 04:57:52;;;;;;;6.67;4.60;;;;;;;20.50;51.49;99395.95;125850;1095;112561;-78
2021/08/01 05:01:36;;;;;;;6.30;4.67;;;;;;;20.59;51.39;99393.47;125250;1099;102885;-78
2021/08/01 05:09:44;;;;;;;;;;;;;;;;;;;;;
2021/08/01 05:13:27;;;;;;;7.17;4.93;;;;;;;21.26;51.01;99372.47;124380;1109;102905;-77
2021/08/01 05:21:18;;;;;;;;;;;;;;;;;;;;;
2021/08/01 05:25:45;;;;;;;;;;;;;;;;;;;;;
2021/08/01 05:33:32;;;;;;;;;;;;;;;;;;;;;
2021/08/01 05:37:47;;;;;;;;;;;;;;;;;;;;;
2021/08/01 05:41:26;;;;;;;;;;;;;;;;;;;;;
2021/08/01 05:45:06;;;;;;;;;;;;;;;;;;;;;
2021/08/01 05:48:15;;;;;;;6.23;3.87;;;;;;;34.94;32.22;99392.59;124698;1106;103097;-77
2021/08/01 05:51:14;;;;;;;5.83;3.40;;;;;;;35.57;30.28;99382.14;124641;1105;113893;-79
2021/08/01 05:54:05;;;;;;;4.80;3.30;;;;;;;36.55;29.38;99384.20;124721;1105;102970;-77
2021/08/01 05:57:10;;;;;;;;;;;;;;;;;;;;;
2021/08/01 05:59:58;;;;;;;7.03;3.20;;;;;;;38.60;26.72;99373.09;125155;1103;102310;-78
2021/08/01 06:03:07;;;;;;;3.63;3.10;;;;;;;39.55;26.04;99369.87;125028;1100;113966;-77
2021/08/01 06:06:16;;;;;;;4.30;3.03;;;;;;;40.62;24.26;99358.85;125179;1101;103044;-78
2021/08/01 06:09:07;;;;;;;7.97;2.87;;;;;;;41.34;23.33;99364.28;125189;1096;114021;-78
2021/08/01 06:12:11;;;;;;;5.67;2.60;;;;;;;41.82;22.35;99364.02;125922;1096;103091;-77
2021/08/01 06:15:09;;;;;;;6.63;2.63;;;;;;;41.43;22.46;99369.20;125854;1097;113921;-78
2021/08/01 06:17:57;;;;;;;8.73;7.83;;;;;;;40.94;21.93;99370.48;125888;1095;103153;-78
2021/08/01 06:20:48;;;;;;;5.47;3.27;;;;;;;40.19;22.19;99368.98;125800;1097;113750;-78
2021/08/01 06:24:12;;;;;;;;;;;;;;;;;;;;;
2021/08/01 06:27:02;;;;;;;5.97;3.23;;;;;;;38.35;22.81;99366.25;125809;1096;113721;-78
2021/08/01 06:30:02;;;;;;;7.30;3.40;;;;;;;37.23;22.70;99379.88;125850;1095;102892;-78
2021/08/01 06:33:07;;;;;;;4.10;3.10;;;;;;;36.55;23.51;99378.77;125730;1096;113743;-78
2021/08/01 06:36:00;;;;;;;5.60;3.33;;;;;;;37.12;23.41;99376.14;125915;1096;102877;-78
2021/08/01 06:38:54;;;;;;;11.30;7.50;;;;;;;36.75;23.84;99372.11;125796;1097;113840;-78
2021/08/01 06:41:58;;;;;;;14.10;10.70;;;;;;;36.66;23.68;99379.00;125915;1096;105131;-78
2021/08/01 06:45:09;;;;;;;8.17;4.80;;;;;;;36.26;23.31;99379.72;125806;1096;114070;-78
2021/08/01 06:48:04;;;;;;;9.20;3.83;;;;;;;36.57;23.96;99390.22;125887;1096;103134;-77
2021/08/01 06:51:34;;;;;;;6.03;2.60;;;;;;;37.49;23.21;99389.34;125772;1096;113930;-78
2021/08/01 06:54:36;;;;;;;5.65;2.30;;;;;;;39.12;21.62;99375.41;125884;1096;103134;-78
2021/08/01 06:57:27;;;;;;;4.27;1.90;;;;;;;40.36;20.38;99374.27;125799;1096;113625;-79
2021/08/01 07:00:24;;;;;;;5.13;2.03;;;;;;;41.12;20.07;99382.83;125872;1098;103050;-78
2021/08/01 07:03:14;;;;;;;2.87;1.53;;;;;;;41.33;19.31;99379.06;125733;1097;112724;-78
2021/08/01 07:06:12;;;;;;;3.30;1.83;;;;;;;42.26;18.31;99382.62;125944;1096;102913;-78
2021/08/01 07:09:13;;;;;;;;;;;;;;;;;;;;;
2021/08/01 07:12:09;;;;;;;2.70;1.80;;;;;;;43.89;16.85;99374.33;125897;1096;103052;-79
2021/08/01 07:15:00;;;;;;;4.23;1.90;;;;;;;44.41;16.80;99375.45;125765;1096;114097;-78
2021/08/01 07:18:03;;;;;;;;;;;;;;;;;;;;;
2021/08/01 07:20:51;;;;;;;11.07;9.97;;;;;;;45.58;15.01;99376.61;126057;1093;114121;-77
2021/08/01 07:23:40;;;;;;;7.43;2.43;;;;;;;45.82;14.60;99380.09;126137;1093;102968;-78
2021/08/01 07:26:30;;;;;;;4.27;1.90;;;;;;;45.84;14.54;99380.61;126133;1093;103045;-77
2021/08/01 07:29:52;;;;;;;;;;;;;;;;;;;;;
2021/08/01 07:32:55;;;;;;;;;;;;;;;;;;;;;
2021/08/01 07:36:03;;;;;;;;;;;;;;;;;;;;;
2021/08/01 07:38:54;;;;;;;2.33;1.30;;;;;;;47.13;13.93;99375.84;126166;1096;103315;-78
2021/08/01 07:42:18;;;;;;;3.97;1.60;;;;;;;47.58;13.52;99367.58;126414;1092;113232;-79
2021/08/01 07:45:23;;;;;;;3.20;1.67;;;;;;;47.40;13.70;99360.28;126572;1092;102911;-78
2021/08/01 07:48:23;;;;;;;3.67;1.33;;;;;;;46.37;13.13;99344.34;126414;1093;102971;-78
2021/08/01 07:51:36;;;;;;;2.30;1.37;;;;;;;44.39;13.59;99347.44;126519;1093;102985;-78
2021/08/01 07:54:39;;;;;;;2.57;1.50;;;;;;;42.63;14.69;99354.83;126447;1093;113526;-78
2021/08/01 07:57:35;;;;;;;2.80;1.40;;;;;;;41.24;14.97;99356.05;126542;1093;103156;-78
2021/08/01 08:00:24;;;;;;;2.75;1.45;;;;;;;40.50;16.09;99353.59;126455;1092;113694;-78
2021/08/01 08:03:24;;;;;;;2.97;1.30;;;;;;;39.98;16.42;99357.11;126259;1092;102943;-78
2021/08/01 08:06:24;;;;;;;4.63;1.50;;;;;;;39.35;16.99;99347.83;126450;1092;113397;-78
2021/08/01 08:09:14;;;;;;;4.83;1.70;;;;;;;38.76;17.43;99358.61;126552;1091;102900;-78
2021/08/01 08:12:03;;;;;;;3.87;1.50;;;;;;;37.84;17.93;99369.27;126418;1092;113886;-78
2021/08/01 08:15:26;;;;;;;4.23;1.47;;;;;;;36.67;18.26;99375.22;126532;1093;103110;-78
2021/08/01 08:18:34;;;;;;;2.90;1.60;;;;;;;35.22;19.23;99384.72;126396;1091;113573;-77
2021/08/01 08:21:31;;;;;;;1.93;1.23;;;;;;;33.62;20.61;99395.48;126506;1092;102897;-78
2021/08/01 08:24:32;;;;;;;6.78;3.55;;;;;;;32.70;20.94;99401.33;126421;1093;113404;-77
2021/08/01 08:28:38;;;;;;;4.20;2.90;;;;;;;31.62;22.05;99389.98;126553;1093;103040;-78
2021/08/01 08:32:10;;;;;;;4.90;1.80;;;;;;;30.55;23.45;99387.08;126523;1092;103372;-77
2021/08/01 08:35:35;;;;;;;3.00;1.40;;;;;;;29.98;23.29;99380.89;126399;1092;113720;-77
2021/08/01 08:39:19;;;;;;;3.53;1.27;;;;;;;29.25;24.76;99382.02;126553;1092;102924;-79
2021/08/01 08:42:59;;;;;;;3.37;1.83;;;;;;;28.70;25.36;99380.73;126416;1092;113633;-77
2021/08/01 08:46:39;;;;;;;2.07;1.40;;;;;;;28.43;26.46;99382.23;126575;1091;102905;-77
2021/08/01 08:50:21;;;;;;;;;;;;;;;;;;;;;
2021/08/01 08:53:59;;;;;;;;;;;;;;;;;;;;;
2021/08/01 08:58:19;;;;;;;6.80;1.30;;;;;;;27.62;27.39;99378.42;125905;1097;103045;-78
2021/08/01 09:02:28;;;;;;;2.20;1.40;;;;;;;27.50;27.92;99384.39;125834;1096;113574;-77
2021/08/01 09:06:20;;;;;;;;;;;;;;;;;;;;;
2021/08/01 09:14:18;;;;;;;;;;;;;;;;;;;;;
2021/08/01 09:18:36;;;;;;;3.67;1.63;;;;;;;28.69;27.98;99371.02;124936;1103;113806;-78
2021/08/01 09:22:59;;;;;;;3.40;1.70;;;;;;;28.39;28.33;99359.49;124523;1106;104106;-78
2021/08/01 09:26:58;;;;;;;4.43;1.67;;;;;;;28.16;28.83;99359.52;124599;1106;102991;-78
2021/08/01 09:30:10;;;;;;;3.60;1.70;;;;;;;28.09;29.19;99349.73;124483;1105;113842;-78
2021/08/01 09:33:41;;;;;;;5.80;1.70;;;;;;;28.20;29.18;99344.76;124577;1104;103090;-77
2021/08/01 09:38:13;;;;;;;2.00;1.47;;;;;;;28.52;28.59;99342.73;124675;1105;113742;-77
2021/08/01 09:41:54;;;;;;;6.03;1.90;;;;;;;29.05;27.52;99338.02;124591;1106;103163;-78
2021/08/01 09:45:52;;;;;;;;;;;;;;;;;;;;;
2021/08/01 09:49:52;;;;;;;2.23;1.60;;;;;;;29.81;27.24;99324.92;125057;1102;113705;-77
2021/08/01 09:57:46;;;;;;;3.20;1.50;;;;;;;29.65;26.59;99312.61;125145;1102;102882;-78
2021/08/01 10:01:59;;;;;;;2.27;1.30;;;;;;;29.39;27.20;99305.10;124833;1103;114755;-78
2021/08/01 10:05:53;;;;;;;;;;;;;;;;;;;;;
2021/08/01 10:09:25;;;;;;;5.33;1.60;;;;;;;28.80;28.43;99314.19;125077;1098;113438;-78
2021/08/01 10:17:08;;;;;;;;;;;;;;;28.63;29.36;99295.82;124687;1105;102881;-77
2021/08/01 10:20:47;;;;;;;;;;;;;;;;;;;;;
2021/08/01 10:24:45;;;;;;;;;;;;;;;;;;;;;
2021/08/01 10:28:17;;;;;;;;;;;;;;;;;;;;;
2021/08/01 10:31:42;;;;;;;4.00;1.60;;;;;;;27.99;29.38;99277.62;124535;1106;103146;-77
2021/08/01 10:35:58;;;;;;;4.67;1.80;;;;;;;27.77;29.46;99276.69;124745;1103;103076;-77
2021/08/01 10:39:57;;;;;;;3.87;1.33;;;;;;;27.40;30.00;99277.51;124667;1102;113995;-77
2021/08/01 10:44:08;;;;;;;2.00;1.60;;;;;;;27.05;30.25;99271.76;124641;1105;103029;-77
2021/08/01 10:47:51;;;;;;;2.30;1.60;;;;;;;26.81;30.51;99269.23;124656;1104;103082;-77
2021/08/01 10:52:00;;;;;;;3.87;1.60;;;;;;;26.61;30.99;99270.69;124477;1105;114268;-77
2021/08/01 10:56:12;;;;;;;2.93;1.73;;;;;;;26.27;31.12;99269.15;124715;1106;102886;-76
2021/08/01 11:00:06;;;;;;;2.40;1.70;;;;;;;25.91;31.89;99263.43;124515;1105;103156;-77
2021/08/01 11:12:52;;;;;;;2.40;1.80;;;;;;;25.80;33.02;99245.91;124479;1105;113640;-77
2021/08/01 11:16:27;;;;;;;3.40;1.97;;;;;;;25.82;33.54;99240.39;124203;1106;113955;-77
2021/08/01 11:20:27;;;;;;;;;;;;;;;;;;;;;
2021/08/01 11:24:41;;;;;;;;;;;;;;;;;;;;;
2021/08/01 11:28:59;;;;;;;;;;;;;;;;;;;;;
2021/08/01 11:37:06;;;;;;;3.57;2.03;;;;;;;25.02;34.06;99245.63;124611;1106;102894;-78
2021/08/01 11:46:07;;;;;;;3.50;1.70;;;;;;;24.84;34.78;99263.59;124055;1109;114048;-78
2021/08/01 11:49:47;;;;;;;4.90;2.00;;;;;;;24.71;35.43;99266.72;124244;1112;103041;-77
2021/08/01 11:54:03;;;;;;;3.70;1.80;;;;;;;24.62;36.12;99271.22;124045;1109;113650;-78
2021/08/01 12:01:12;;;;;;;;;;;;;;;;;;;;;
2021/08/01 12:06:02;;;;;;;4.73;1.90;;;;;;;24.28;36.24;99297.88;124172;1109;113642;-77
2021/08/01 12:13:54;;;;;;;;;;;;;;;;;;;;;
2021/08/01 12:17:51;;;;;;;;;;;;;;;;;;;;;
2021/08/01 12:22:36;;;;;;;4.27;2.27;;;;;;;24.15;41.06;99304.63;124318;1107;113983;-78
2021/08/01 12:26:27;;;;;;;4.83;2.07;;;;;;;23.94;41.66;99295.20;124204;1108;103008;-78
2021/08/01 12:29:57;;;;;;;3.33;2.00;;;;;;;23.75;42.38;99298.08;123946;1112;113714;-77
2021/08/01 12:38:14;;;;;;;;;;;;;;;;;;;;;
2021/08/01 12:46:01;;;;;;;;;;;;;;;;;;;;;
2021/08/01 12:54:27;;;;;;;;;;;;;;;;;;;;;
2021/08/01 12:59:04;;;;;;;3.80;2.20;;;;;;;23.10;47.43;99260.28;123675;1122;103211;-78
2021/08/01 13:03:13;;;;;;;3.97;2.50;;;;;;;23.09;47.69;99271.91;126640;1093;102943;-77
2021/08/01 13:06:53;;;;;;;;;;;;;;;;;;;;;
2021/08/01 13:10:50;;;;;;;5.20;2.13;;;;;;;22.92;48.25;99262.94;126255;1092;102890;-78
2021/08/01 13:14:54;;;;;;;3.57;2.40;;;;;;;22.91;48.95;99224.88;126155;1093;113264;-77
2021/08/01 13:19:03;;;;;;;3.80;2.10;;;;;;;22.84;49.32;99221.17;125951;1095;113771;-77
2021/08/01 13:23:14;;;;;;;4.60;2.70;;;;;;;22.85;48.84;99214.86;126014;1097;102897;-78
2021/08/01 13:27:17;;;;;;;;;;;;;;;;;;;;;
2021/08/01 13:31:34;;;;;;;;;;;;;;;;;;;;;
2021/08/01 13:40:11;;;;;;;;;;;;;;;;;;;;;
2021/08/01 13:44:32;;;;;;;;;;;;;;;;;;;;;
2021/08/01 13:52:39;;;;;;;4.80;1.83;;;;;;;23.50;48.24;99199.38;124666;1105;103050;-77
2021/08/01 13:56:20;;;;;;;;;;;;;;;23.42;48.45;99195.84;124438;1109;113677;-77
2021/08/01 14:00:27;;;;;;;3.00;2.13;;;;;;;23.31;48.72;99198.75;124603;1109;102913;-77
2021/08/01 14:04:18;;;;;;;5.67;2.40;;;;;;;23.10;49.28;99194.62;124414;1106;113466;-77
2021/08/01 14:12:59;;;;;;;2.93;2.30;;;;;;;22.81;50.07;99196.69;124843;1103;102991;-78
2021/08/01 14:16:39;;;;;;;2.93;2.30;;;;;;;22.70;50.80;99181.80;125163;1100;113504;-77
2021/08/01 14:20:42;;;;;;;3.57;2.10;;;;;;;22.69;50.47;99173.98;125093;1103;114012;-76
2021/08/01 14:24:50;;;;;;;5.40;2.70;;;;;;;22.74;51.46;99148.59;124797;1103;102961;-77
2021/08/01 14:28:39;;;;;;;3.90;2.75;;;;;;;22.90;51.53;99156.74;124582;1106;113465;-77
2021/08/01 14:32:48;;;;;;;3.20;2.33;;;;;;;22.91;51.25;99177.02;124296;1108;113963;-77
2021/08/01 14:37:00;;;;;;;2.90;2.10;;;;;;;22.74;51.14;99156.57;124231;1111;103034;-77
2021/08/01 14:41:34;;;;;;;4.65;2.75;;;;;;;22.59;51.13;99160.75;123839;1112;113465;-77
2021/08/01 14:48:59;;;;;;;;;;;;;;;;;;;;;
2021/08/01 15:01:42;;;;;;;;;;;;;;;;;;;;;
2021/08/01 15:10:32;;;;;;;6.00;3.25;;;;;;;21.93;53.61;99106.13;123693;1114;113788;-78
2021/08/01 15:14:45;;;;;;;7.10;4.40;;;;;;;21.94;54.37;99131.69;123972;1116;102910;-78
2021/08/01 15:18:53;;;;;;;4.50;2.90;;;;;;;21.92;54.15;99140.78;123904;1111;103205;-77
2021/08/01 15:22:49;;;;;;;4.40;2.80;;;;;;;21.97;54.80;99122.58;123808;1115;113842;-77
2021/08/01 15:26:38;;;;;;;4.05;2.25;;;;;;;22.09;55.03;99126.74;124184;1109;103077;-78
2021/08/01 15:30:07;;;;;;;3.05;2.15;;;;;;;22.09;54.81;99113.46;124405;1107;113771;-77
2021/08/01 15:33:49;;;;;;;;;;;;;;;;;;;;;
2021/08/01 15:37:52;;;;;;;3.27;2.03;;;;;;;22.16;54.84;99121.66;124662;1105;103126;-77
2021/08/01 15:41:52;;;;;;;2.80;2.13;;;;;;;22.16;54.51;99122.48;124694;1103;113756;-77
2021/08/01 15:49:44;;;;;;;;;;;;;;;;;;;;;
2021/08/01 15:53:54;;;;;;;4.60;2.10;;;;;;;22.18;55.22;99119.68;124695;1103;113787;-76
2021/08/01 15:58:01;;;;;;;4.30;2.60;;;;;;;22.24;54.81;99108.44;124770;1103;102900;-77
2021/08/01 16:02:24;;;;;;;3.87;2.30;;;;;;;22.28;54.64;99100.05;124739;1103;103096;-77
2021/08/01 16:06:39;;;;;;;5.80;2.37;;;;;;;22.30;54.99;99106.03;124705;1105;113826;-77
2021/08/01 16:15:24;;;;;;;;;;;;;;;;;;;;;
2021/08/01 16:24:23;;;;;;;5.25;3.10;;;;;;;22.36;53.05;99079.84;123546;1119;113737;-80
2021/08/01 16:28:30;;;;;;;4.50;3.00;;;;;;;22.37;53.69;99081.52;123614;1119;103349;-79
2021/08/01 16:36:05;;;;;;;5.03;3.17;;;;;;;22.43;52.91;99084.38;126479;1092;103015;-78
2021/08/01 16:40:14;;;;;;;4.20;2.77;;;;;;;22.46;52.68;99077.95;126120;1095;103218;-79
2021/08/01 16:44:25;;;;;;;3.80;2.60;;;;;;;22.42;52.46;99082.71;126033;1098;103015;-79
2021/08/01 16:48:50;;;;;;;4.60;2.43;;;;;;;22.38;52.61;99088.48;125985;1100;113771;-80
2021/08/01 16:57:25;;;;;;;3.57;2.17;;;;;;;22.28;52.27;99062.02;125072;1103;103046;-80
2021/08/01 17:06:30;;;;;;;3.03;2.30;;;;;;;22.13;52.76;99051.09;124061;1111;102898;-79
2021/08/01 17:10:44;;;;;;;3.85;2.20;;;;;;;22.01;52.55;99053.09;124059;1112;103016;-79
2021/08/01 17:18:22;;;;;;;;;;;;;;;21.82;52.98;99052.40;124338;1111;103175;-79
2021/08/01 17:22:31;;;;;;;4.70;2.10;;;;;;;21.66;53.10;99051.23;124630;1108;103000;-79
2021/08/01 17:48:42;;;;;;;4.20;2.20;;;;;;;21.44;52.94;99040.20;124487;1112;103010;-80
2021/08/01 17:57:22;;;;;;;3.70;2.40;;;;;;;21.22;53.36;99042.22;123685;1117;114446;-80
2021/08/01 18:04:54;;;;;;;;;;;;;;;;;;;;;
2021/08/01 18:13:15;;;;;;;4.73;2.10;;;;;;;21.02;53.87;99028.21;126048;1096;103048;-79
2021/08/01 18:21:42;;;;;;;3.43;2.40;;;;;;;20.68;54.63;99032.36;125188;1103;113549;-79
2021/08/01 18:25:41;;;;;;;6.90;2.70;;;;;;;20.57;55.44;99024.55;124913;1105;102937;-78
2021/08/01 18:33:42;;;;;;;;;;;;;;;20.53;55.61;99025.83;124568;1106;113830;-79
2021/08/01 18:37:51;;;;;;;3.13;2.03;;;;;;;20.52;55.46;99019.69;124663;1106;101111;-78
2021/08/01 18:42:17;;;;;;;3.05;2.55;;;;;;;20.46;55.83;99029.02;124543;1109;113253;-80
2021/08/01 18:50:23;;;;;;;3.20;2.60;;;;;;;20.28;55.67;99035.14;123917;1114;102913;-77
2021/08/01 19:14:50;;;;;;;;;;;;;;;;;;;;;
2021/08/01 19:19:27;;;;;;;4.70;2.50;;;;;;;20.12;56.69;99035.72;123580;1119;113507;-79
2021/08/01 19:48:10;;;;;;;3.80;2.80;;;;;;;19.80;57.59;99023.58;123681;1118;112851;-78
2021/08/01 19:51:43;;;;;;;;;;;;;;;;;;;;;
2021/08/01 19:56:02;;;;;;;;;;;;;;;;;;;;;
2021/08/01 20:03:53;;;;;;;3.07;2.77;;;;;;;19.85;57.51;99031.93;126633;1093;102861;-80
2021/08/01 20:16:07;;;;;;;;;;;;;;;;;;;;;
2021/08/01 20:20:18;;;;;;;4.07;2.50;;;;;;;19.63;58.86;99016.31;124657;1104;112495;-80
2021/08/01 20:32:31;;;;;;;;;;;;;;;;;;;;;
2021/08/01 20:35:19;;;;;;;4.63;3.00;;;;;;;19.44;59.57;99055.90;126687;1093;102974;-80
2021/08/01 20:38:07;;;;;;;3.30;2.87;;;;;;;19.45;59.44;99044.34;126281;1092;103548;-80
2021/08/01 20:40:54;;;;;;;3.90;2.95;;;;;;;19.41;59.88;99037.66;126439;1093;102934;-79
2021/08/01 20:43:42;;;;;;;5.33;3.20;;;;;;;19.39;59.93;99031.64;126199;1093;113624;-80
2021/08/01 20:46:31;;;;;;;3.80;2.70;;;;;;;19.35;60.12;99024.96;126328;1095;103020;-80
2021/08/01 20:49:20;;;;;;;3.77;2.67;;;;;;;19.29;60.60;99024.53;126192;1093;113562;-79
2021/08/01 20:52:07;;;;;;;7.00;2.90;;;;;;;19.21;60.37;99029.67;126496;1093;102824;-79
2021/08/01 20:54:56;;;;;;;4.13;2.80;;;;;;;19.15;60.82;99032.83;126292;1092;113590;-79
2021/08/01 20:57:44;;;;;;;4.03;2.70;;;;;;;19.16;60.93;99031.85;126309;1093;102916;-79
2021/08/01 21:00:32;;;;;;;4.03;2.90;;;;;;;19.18;61.15;99029.08;126196;1093;112840;-79
2021/08/01 21:03:20;;;;;;;3.90;3.03;;;;;;;19.13;61.09;99021.55;126286;1093;102655;-79
2021/08/01 21:06:08;;;;;;;3.73;2.80;;;;;;;19.11;61.20;99023.50;126232;1093;113956;-79
2021/08/01 21:08:55;;;;;;;3.77;3.30;;;;;;;19.08;61.26;99015.84;126314;1092;102887;-79
2021/08/01 21:11:43;;;;;;;;;;;;;;;19.03;61.35;99015.41;126362;1093;102861;-79
2021/08/01 21:14:30;;;;;;;3.50;3.10;;;;;;;19.02;61.57;99011.06;126144;1093;103038;-79
2021/08/01 21:17:18;;;;;;;4.00;3.10;;;;;;;18.98;61.65;99002.57;126326;1093;102859;-78
2021/08/01 21:20:06;;;;;;;;;;;;;;;18.93;61.80;98998.66;126299;1093;112643;-78
2021/08/01 21:22:54;;;;;;;4.90;3.45;;;;;;;18.92;62.03;99000.47;126407;1094;102850;-79
2021/08/01 21:25:41;;;;;;;5.77;3.23;;;;;;;18.95;62.13;99004.65;126190;1093;113559;-79
2021/08/01 21:28:29;;;;;;;4.67;3.23;;;;;;;18.97;62.21;98994.78;126290;1093;103354;-79
2021/08/01 21:31:17;;;;;;;4.47;3.17;;;;;;;19.03;62.24;98999.55;126250;1093;113838;-79
2021/08/01 21:34:06;;;;;;;5.20;3.33;;;;;;;19.04;62.11;98988.02;126285;1093;102871;-79
2021/08/01 21:36:54;;;;;;;5.50;3.13;;;;;;;19.02;62.37;98982.83;126240;1093;113723;-79
2021/08/01 21:39:41;;;;;;;3.33;2.70;;;;;;;19.06;62.25;98983.42;126293;1093;102284;-78
2021/08/01 21:42:31;;;;;;;4.87;2.60;;;;;;;19.10;62.26;98982.18;126178;1096;113947;-78
2021/08/01 21:45:20;;;;;;;5.53;2.93;;;;;;;19.07;62.08;98974.53;126254;1096;103425;-79
2021/08/01 21:48:07;;;;;;;;;;;;;;;19.02;61.94;98974.07;126361;1093;101596;-79
2021/08/01 21:50:55;;;;;;;3.60;3.00;;;;;;;18.97;62.09;98969.19;126349;1095;102877;-79
2021/08/01 21:53:43;;;;;;;4.97;3.20;;;;;;;18.94;62.12;98968.63;126332;1093;103306;-78
2021/08/01 21:56:31;;;;;;;3.63;2.73;;;;;;;18.93;62.40;98964.31;126156;1095;113628;-78
2021/08/01 21:59:18;;;;;;;;;;;;;;;18.94;62.64;98942.20;126284;1093;102873;-79
2021/08/01 22:02:06;;;;;;;5.50;2.93;;;;;;;18.92;62.75;98944.16;126214;1093;102982;-79
2021/08/01 22:04:57;;;;;;;5.27;3.60;;;;;;;18.87;62.68;98938.44;126272;1095;103355;-79
2021/08/01 22:07:45;;;;;;;5.67;3.37;;;;;;;18.86;63.02;98939.41;126204;1092;113883;-79
2021/08/01 22:10:35;;;;;;;4.20;3.43;;;;;;;18.88;63.06;98937.47;126287;1093;102860;-79
2021/08/01 22:13:25;;;;;;;3.93;3.17;;;;;;;18.90;63.31;98943.45;126218;1093;112483;-79
2021/08/01 22:16:17;;;;;;;3.47;3.03;;;;;;;18.92;63.32;98941.52;126294;1095;103004;-79
2021/08/01 22:19:05;;;;;;;5.00;3.13;;;;;;;18.90;63.83;98940.81;126205;1093;113842;-79
2021/08/01 22:21:53;;;;;;;4.50;3.23;;;;;;;18.84;64.06;98938.68;126271;1093;102882;-79
2021/08/01 22:24:41;;;;;;;4.93;3.33;;;;;;;18.79;64.37;98938.25;126212;1093;113750;-79
2021/08/01 22:27:31;;;;;;;4.87;3.10;;;;;;;18.68;64.45;98945.31;126306;1093;103281;-79
2021/08/01 22:30:19;;;;;;;5.17;3.00;;;;;;;18.64;64.79;98940.41;126311;1092;102731;-79
2021/08/01 22:33:07;;;;;;;3.57;2.97;;;;;;;18.58;65.11;98943.55;126231;1093;113546;-79
2021/08/01 22:35:57;;;;;;;4.83;3.50;;;;;;;18.51;65.52;98945.89;126387;1093;102882;-80
2021/08/01 22:38:47;;;;;;;6.15;3.85;;;;;;;18.47;65.99;98952.38;126225;1093;113618;-79
2021/08/01 22:41:36;;;;;;;5.43;3.53;;;;;;;18.39;66.02;98942.48;126346;1096;102852;-79
2021/08/01 22:44:24;;;;;;;4.70;3.50;;;;;;;18.33;66.32;98947.45;126192;1092;112616;-79
2021/08/01 22:47:12;;;;;;;4.00;3.40;;;;;;;18.31;66.76;98946.72;126360;1095;102875;-79
2021/08/01 22:50:00;;;;;;;4.00;3.40;;;;;;;18.29;67.12;98948.66;126251;1093;113619;-79
2021/08/01 22:52:48;;;;;;;4.77;3.70;;;;;;;18.23;67.08;98946.55;126306;1093;102881;-79
2021/08/01 22:55:36;;;;;;;5.47;3.70;;;;;;;18.19;67.71;98940.70;126220;1092;113606;-79
2021/08/01 22:58:23;;;;;;;5.20;3.50;;;;;;;18.19;67.82;98940.70;126333;1093;102658;-79
2021/08/01 23:01:14;;;;;;;5.83;3.37;;;;;;;18.20;68.13;98947.65;126325;1092;113905;-79
2021/08/01 23:04:06;;;;;;;5.10;3.80;;;;;;;18.25;68.14;98945.45;126390;1093;101833;-79
2021/08/01 23:07:03;;;;;;;5.05;3.70;;;;;;;18.23;68.33;98943.91;126293;1093;113706;-79
2021/08/01 23:09:53;;;;;;;4.83;3.73;;;;;;;18.19;68.46;98945.14;126385;1092;101252;-79
2021/08/01 23:12:46;;;;;;;5.10;3.73;;;;;;;18.19;68.83;98939.86;126412;1093;102894;-79
2021/08/01 23:15:42;;;;;;;4.23;3.83;;;;;;;18.19;68.94;98947.78;126377;1092;103951;-79
2021/08/01 23:18:36;;;;;;;5.03;4.13;;;;;;;18.15;68.79;98947.20;126352;1092;102878;-79
2021/08/01 23:21:25;;;;;;;6.13;4.57;;;;;;;18.10;69.15;98942.29;126322;1093;113716;-78
2021/08/01 23:24:19;;;;;;;6.10;3.40;;;;;;;18.09;69.36;98951.17;126398;1092;102855;-79
2021/08/01 23:27:09;;;;;;;4.93;3.57;;;;;;;18.07;69.72;98952.27;126683;1092;112577;-80
2021/08/01 23:30:01;;;;;;;5.37;4.10;;;;;;;18.03;69.78;98954.34;126454;1091;102820;-80
2021/08/01 23:32:51;;;;;;;6.57;3.90;;;;;;;18.04;70.01;98955.17;126282;1093;113743;-80
2021/08/01 23:35:40;;;;;;;5.53;4.40;;;;;;;18.05;70.10;98949.77;126263;1092;102865;-80
2021/08/01 23:38:29;;;;;;;4.03;3.63;;;;;;;18.03;70.30;98956.14;126340;1093;113577;-79
2021/08/01 23:41:16;;;;;;;5.63;4.50;;;;;;;18.02;70.53;98950.02;126345;1093;102853;-79
2021/08/01 23:44:06;;;;;;;5.80;4.50;;;;;;;18.01;70.61;98964.18;126322;1092;113805;-79
2021/08/01 23:46:58;;;;;;;6.73;4.70;;;;;;;17.99;71.00;98958.20;126570;1092;103067;-80
2021/08/01 23:49:47;;;;;;;6.20;4.57;;;;;;;17.94;71.09;98960.36;126446;1093;113749;-80
2021/08/01 23:53:21;;;;;;;6.00;4.63;;;;;;;17.87;71.29;98953.93;126573;1093;102900;-80
2021/08/01 23:56:14;;;;;;;5.43;4.27;;;;;;;17.82;71.49;98958.75;126163;1094;114408;-79
2021/08/01 23:59:17;;;;;;;5.40;4.07;;;;;;;17.78;71.62;98963.45;126364;1096;103204;-79
